createdAt,value
2019-04-06T00:01:28.857Z,101817.67
2019-04-06T00:03:55.952Z,101811.08
2019-04-06T00:06:23.061Z,101807.98
2019-04-06T00:08:50.148Z,101815.41
2019-04-06T00:11:17.252Z,101818.47
2019-04-06T00:13:44.370Z,101816.72
2019-04-06T00:16:12.558Z,101810.13
2019-04-06T00:18:39.635Z,101811.44
2019-04-06T00:21:06.745Z,101810.97
2019-04-06T00:23:33.838Z,101811.84
2019-04-06T00:26:00.936Z,101803.09
2019-04-06T00:28:28.008Z,101804.84
2019-04-06T00:31:04.939Z,101810.92
2019-04-06T00:33:32.083Z,101805.69
2019-04-06T00:35:59.168Z,101807.86
2019-04-06T00:38:26.249Z,101806.55
2019-04-06T00:40:54.453Z,101808.73
2019-04-06T00:43:21.491Z,101807.83
2019-04-06T00:45:48.570Z,101807.78
2019-04-06T00:48:15.666Z,101806.44
2019-04-06T00:50:43.946Z,101810.32
2019-04-06T00:53:11.010Z,101812.03
2019-04-06T00:55:38.158Z,101809.41
2019-04-06T00:58:05.245Z,101808.48
2019-04-06T01:00:32.322Z,101808.88
2019-04-06T01:02:59.399Z,101810.11
2019-04-06T01:05:26.494Z,101807.45
2019-04-06T01:07:53.628Z,101807.01
2019-04-06T01:10:21.826Z,101801.73
2019-04-06T01:12:48.909Z,101801.28
2019-04-06T01:15:15.994Z,101799.94
2019-04-06T01:17:43.059Z,101797.70
2019-04-06T01:20:10.254Z,101797.22
2019-04-06T01:22:39.134Z,101796.31
2019-04-06T01:25:07.739Z,101796.30
2019-04-06T01:27:34.809Z,101800.19
2019-04-06T01:30:01.886Z,101804.50
2019-04-06T01:32:28.999Z,101802.72
2019-04-06T01:34:56.086Z,101800.09
2019-04-06T01:37:23.144Z,101797.47
2019-04-06T01:39:52.027Z,101801.84
2019-04-06T01:42:19.099Z,101805.77
2019-04-06T01:44:46.177Z,101802.72
2019-04-06T01:47:13.273Z,101803.19
2019-04-06T01:49:42.177Z,101804.06
2019-04-06T01:52:09.260Z,101806.25
2019-04-06T01:54:36.344Z,101801.45
2019-04-06T01:57:03.429Z,101795.30
2019-04-06T01:59:30.519Z,101802.71
2019-04-06T02:02:20.493Z,101800.96
2019-04-06T02:04:47.578Z,101797.86
2019-04-06T02:07:14.654Z,101795.69
2019-04-06T02:09:42.831Z,101799.17
2019-04-06T02:12:09.927Z,101798.73
2019-04-06T02:14:38.206Z,101795.67
2019-04-06T02:17:05.282Z,101793.06
2019-04-06T02:19:32.360Z,101796.98
2019-04-06T02:21:59.483Z,101787.83
2019-04-06T02:24:26.547Z,101788.25
2019-04-06T02:26:53.618Z,101789.13
2019-04-06T02:29:20.701Z,101792.14
2019-04-06T02:32:05.398Z,101789.52
2019-04-06T02:34:54.896Z,101785.59
2019-04-06T02:37:41.814Z,101792.63
2019-04-06T02:40:27.076Z,101788.27
2019-04-06T02:43:01.605Z,101789.58
2019-04-06T02:45:28.687Z,101786.09
2019-04-06T02:47:55.763Z,101787.00
2019-04-06T02:50:22.839Z,101789.17
2019-04-06T02:52:49.990Z,101786.52
2019-04-06T02:55:17.068Z,101788.27
2019-04-06T02:57:45.139Z,101786.91
2019-04-06T03:00:12.770Z,101783.84
2019-04-06T03:02:39.889Z,101791.27
2019-04-06T03:05:07.083Z,101788.16
2019-04-06T03:07:34.397Z,101787.28
2019-04-06T03:10:01.481Z,101791.61
2019-04-06T03:12:28.740Z,101788.11
2019-04-06T03:14:55.966Z,101791.17
2019-04-06T03:17:23.069Z,101787.63
2019-04-06T03:19:50.396Z,101787.63
2019-04-06T03:22:17.551Z,101788.51
2019-04-06T03:24:44.713Z,101781.97
2019-04-06T03:27:11.785Z,101783.27
2019-04-06T03:29:39.156Z,101784.13
2019-04-06T03:32:06.226Z,101785.40
2019-04-06T03:34:33.522Z,101782.30
2019-04-06T03:37:00.694Z,101779.25
2019-04-06T03:39:27.884Z,101782.30
2019-04-06T03:41:55.024Z,101781.47
2019-04-06T03:44:22.094Z,101780.16
2019-04-06T03:46:49.157Z,101789.77
2019-04-06T03:49:16.227Z,101787.58
2019-04-06T03:51:43.294Z,101781.87
2019-04-06T03:54:10.374Z,101781.43
2019-04-06T03:56:37.480Z,101780.55
2019-04-06T03:59:04.569Z,101783.60
2019-04-06T04:01:31.643Z,101783.16
2019-04-06T04:03:58.743Z,101792.28
2019-04-06T04:06:25.989Z,101785.69
2019-04-06T04:08:54.203Z,101784.38
2019-04-06T04:11:21.278Z,101779.57
2019-04-06T04:13:48.356Z,101784.33
2019-04-06T04:16:15.421Z,101787.38
2019-04-06T04:18:42.496Z,101788.68
2019-04-06T04:21:09.586Z,101793.00
2019-04-06T04:23:36.940Z,101790.38
2019-04-06T04:26:04.102Z,101796.05
2019-04-06T04:28:31.194Z,101799.97
2019-04-06T04:30:58.546Z,101799.09
2019-04-06T04:33:25.761Z,101798.67
2019-04-06T04:35:52.828Z,101801.73
2019-04-06T04:38:19.902Z,101804.38
2019-04-06T04:40:46.989Z,101796.53
2019-04-06T04:43:14.065Z,101800.42
2019-04-06T04:45:41.134Z,101809.14
2019-04-06T04:48:08.207Z,101807.45
2019-04-06T04:50:35.295Z,101806.19
2019-04-06T04:53:02.385Z,101807.50
2019-04-06T04:55:29.458Z,101807.98
2019-04-06T04:57:56.527Z,101803.67
2019-04-06T05:00:23.610Z,101801.06
2019-04-06T05:02:51.818Z,101806.78
2019-04-06T05:05:18.886Z,101799.02
2019-04-06T05:07:45.958Z,101802.56
2019-04-06T05:10:14.256Z,101807.42
2019-04-06T05:12:41.328Z,101802.23
2019-04-06T05:15:10.181Z,101805.77
2019-04-06T05:17:37.280Z,101801.02
2019-04-06T05:20:05.896Z,101805.47
2019-04-06T05:22:32.972Z,101796.79
2019-04-06T05:25:00.048Z,101795.13
2019-04-06T05:27:27.154Z,101798.23
2019-04-06T05:29:54.235Z,101797.01
2019-04-06T05:32:21.535Z,101798.80
2019-04-06T05:34:48.608Z,101798.84
2019-04-06T05:37:15.686Z,101800.67
2019-04-06T05:39:43.774Z,101798.14
2019-04-06T05:42:10.855Z,101807.42
2019-04-06T05:44:39.019Z,101804.45
2019-04-06T05:47:06.076Z,101799.28
2019-04-06T05:49:33.157Z,101796.70
2019-04-06T05:52:00.340Z,101806.38
2019-04-06T05:54:27.495Z,101802.95
2019-04-06T05:56:54.580Z,101806.52
2019-04-06T05:59:21.656Z,101803.09
2019-04-06T06:01:49.374Z,101812.84
2019-04-06T06:04:16.529Z,101807.69
2019-04-06T06:06:43.752Z,101809.97
2019-04-06T06:09:11.121Z,101804.80
2019-04-06T06:11:38.503Z,101809.28
2019-04-06T06:14:06.030Z,101809.37
2019-04-06T06:16:33.102Z,101811.68
2019-04-06T06:19:00.172Z,101814.41
2019-04-06T06:21:27.349Z,101814.95
2019-04-06T06:23:54.563Z,101815.02
2019-04-06T06:26:25.716Z,101816.39
2019-04-06T06:28:52.737Z,101817.33
2019-04-06T06:31:19.808Z,101813.41
2019-04-06T06:33:46.983Z,101812.14
2019-04-06T06:36:14.302Z,101804.23
2019-04-06T06:38:41.524Z,101808.62
2019-04-06T06:41:08.715Z,101805.99
2019-04-06T06:43:35.838Z,101803.37
2019-04-06T06:46:03.182Z,101800.71
2019-04-06T06:48:30.338Z,101804.65
2019-04-06T06:50:57.533Z,101796.27
2019-04-06T06:53:24.781Z,101798.85
2019-04-06T06:55:53.345Z,101794.84
2019-04-06T06:58:25.545Z,101798.77
2019-04-06T07:00:49.825Z,101792.55
2019-04-06T07:03:16.905Z,101799.98
2019-04-06T07:05:44.171Z,101800.38
2019-04-06T07:08:11.397Z,101800.76
2019-04-06T07:10:38.512Z,101802.03
2019-04-06T07:13:05.594Z,101805.47
2019-04-06T07:15:33.102Z,101813.36
2019-04-06T07:18:00.273Z,101808.91
2019-04-06T07:20:27.359Z,101803.14
2019-04-06T07:22:54.447Z,101811.88
2019-04-06T07:25:21.548Z,101814.84
2019-04-06T07:27:48.630Z,101815.17
2019-04-06T07:30:15.836Z,101814.67
2019-04-06T07:32:44.035Z,101812.83
2019-04-06T07:35:12.042Z,101817.10
2019-04-06T07:37:39.303Z,101813.47
2019-04-06T07:40:06.800Z,101813.36
2019-04-06T07:42:35.220Z,101816.81
2019-04-06T07:45:02.421Z,101818.88
2019-04-06T07:47:29.558Z,101817.94
2019-04-06T07:49:56.650Z,101820.80
2019-04-06T07:52:23.822Z,101823.30
2019-04-06T07:54:50.937Z,101817.82
2019-04-06T07:57:18.032Z,101819.03
2019-04-06T07:59:45.148Z,101816.59
2019-04-06T08:02:12.502Z,101811.91
2019-04-06T08:04:39.619Z,101811.64
2019-04-06T08:07:08.521Z,101814.16
2019-04-06T08:09:35.649Z,101814.19
2019-04-06T08:12:02.859Z,101811.55
2019-04-06T08:14:29.922Z,101808.77
2019-04-06T08:16:57.025Z,101799.14
2019-04-06T08:19:24.207Z,101802.86
2019-04-06T08:21:58.033Z,101803.41
2019-04-06T08:24:25.138Z,101790.31
2019-04-06T08:26:52.351Z,101793.69
2019-04-06T08:29:19.459Z,101803.39
2019-04-06T08:31:46.744Z,101788.22
2019-04-06T08:34:14.219Z,101782.28
2019-04-06T08:36:42.609Z,101787.16
2019-04-06T08:39:09.707Z,101782.02
2019-04-06T08:41:36.895Z,101783.52
2019-04-06T08:44:04.501Z,101788.28
2019-04-06T08:46:31.618Z,101778.05
2019-04-06T08:48:58.977Z,101776.24
2019-04-06T08:51:26.084Z,101773.84
2019-04-06T08:53:53.201Z,101778.95
2019-04-06T08:56:20.343Z,101775.97
2019-04-06T08:58:47.418Z,101775.86
2019-04-06T09:01:14.917Z,101772.24
2019-04-06T09:03:43.095Z,101765.70
2019-04-06T09:06:10.211Z,101761.38
2019-04-06T09:08:37.283Z,101764.52
2019-04-06T09:11:04.389Z,101757.13
2019-04-06T09:13:32.819Z,101753.41
2019-04-06T09:15:59.962Z,101749.84
2019-04-06T09:18:28.665Z,101754.82
2019-04-06T09:20:56.007Z,101745.91
2019-04-06T09:23:23.106Z,101746.70
2019-04-06T09:25:50.444Z,101731.59
2019-04-06T09:28:19.500Z,101737.22
2019-04-06T09:30:46.676Z,101725.09
2019-04-06T09:33:14.069Z,101733.20
2019-04-06T09:35:42.489Z,101722.21
2019-04-06T09:38:18.543Z,101718.95
2019-04-06T09:40:47.448Z,101719.98
2019-04-06T09:43:14.679Z,101712.50
2019-04-06T09:45:52.690Z,101713.38
2019-04-06T09:48:45.537Z,101710.38
2019-04-06T09:51:19.032Z,101707.66
2019-04-06T09:54:17.933Z,101699.81
2019-04-06T09:57:19.710Z,101701.39
2019-04-06T10:00:09.313Z,101696.16
2019-04-06T10:03:11.339Z,101696.81
2019-04-06T10:05:50.752Z,101699.19
2019-04-06T10:08:44.864Z,101692.16
2019-04-06T10:11:30.334Z,101688.34
2019-04-06T10:14:17.348Z,101693.84
2019-04-06T10:17:04.078Z,101695.34
2019-04-06T10:20:06.270Z,101693.27
2019-04-06T10:22:50.329Z,101685.64
2019-04-06T10:25:35.663Z,101681.80
2019-04-06T10:28:15.822Z,101691.39
2019-04-06T10:31:11.464Z,101682.39
2019-04-06T10:34:04.317Z,101668.83
2019-04-06T10:37:00.081Z,101677.16
2019-04-06T10:39:52.656Z,101671.09
2019-04-06T10:42:33.780Z,101662.89
2019-04-06T10:45:29.390Z,101667.26
2019-04-06T10:48:35.950Z,101655.98
2019-04-06T10:51:21.441Z,101671.65
2019-04-06T10:54:11.053Z,101670.56
2019-04-06T10:56:57.229Z,101653.19
2019-04-06T10:59:44.065Z,101646.89
2019-04-06T11:02:29.315Z,101646.31
2019-04-06T11:05:06.688Z,101646.27
2019-04-06T11:07:55.194Z,101653.67
2019-04-06T11:10:47.601Z,101645.30
2019-04-06T11:13:38.814Z,101646.91
2019-04-06T11:16:16.012Z,101646.74
2019-04-06T11:19:09.021Z,101649.55
2019-04-06T11:22:04.515Z,101640.37
2019-04-06T11:24:49.749Z,101644.31
2019-04-06T11:27:36.582Z,101656.29
2019-04-06T11:30:26.419Z,101635.01
2019-04-06T11:33:11.710Z,101635.98
2019-04-06T11:35:57.310Z,101641.96
2019-04-06T11:38:34.795Z,101634.69
2019-04-06T11:41:22.421Z,101632.77
2019-04-06T11:44:18.659Z,101645.48
2019-04-06T11:47:06.354Z,101637.63
2019-04-06T11:49:42.310Z,101630.91
2019-04-06T11:52:40.938Z,101634.25
2019-04-06T11:55:14.822Z,101634.62
2019-04-06T11:58:00.236Z,101634.27
2019-04-06T12:00:56.082Z,101622.77
2019-04-06T12:03:29.361Z,101629.72
2019-04-06T12:06:06.210Z,101624.88
2019-04-06T12:08:58.643Z,101626.02
2019-04-06T12:12:00.665Z,101622.94
2019-04-06T12:14:54.387Z,101625.02
2019-04-06T12:17:56.136Z,101619.55
2019-04-06T12:20:33.494Z,101604.36
2019-04-06T12:23:15.498Z,101611.91
2019-04-06T12:25:54.219Z,101616.38
2019-04-06T12:28:28.801Z,101605.39
2019-04-06T12:31:21.630Z,101617.22
2019-04-06T12:34:03.016Z,101611.84
2019-04-06T12:36:55.903Z,101601.28
2019-04-06T12:39:36.847Z,101610.86
2019-04-06T12:42:23.202Z,101597.95
2019-04-06T12:45:19.317Z,101596.94
2019-04-06T12:48:09.673Z,101596.45
2019-04-06T12:50:56.464Z,101600.06
2019-04-06T12:53:34.180Z,101589.41
2019-04-06T12:56:30.146Z,101593.73
2019-04-06T12:59:28.896Z,101586.44
2019-04-06T13:02:18.698Z,101592.47
2019-04-06T13:04:56.828Z,101585.30
2019-04-06T13:07:45.708Z,101582.59
2019-04-06T13:10:31.210Z,101572.46
2019-04-06T13:13:27.137Z,101574.19
2019-04-06T13:16:32.187Z,101573.33
2019-04-06T13:19:37.125Z,101572.80
2019-04-06T13:22:23.985Z,101559.44
2019-04-06T13:24:59.544Z,101561.77
2019-04-06T13:27:49.601Z,101550.14
2019-04-06T13:30:32.141Z,101547.75
2019-04-06T13:33:05.890Z,101546.99
2019-04-06T13:35:44.694Z,101554.18
2019-04-06T13:38:43.428Z,101555.43
2019-04-06T13:41:28.906Z,101557.69
2019-04-06T13:44:14.046Z,101544.61
2019-04-06T13:47:00.833Z,101539.79
2019-04-06T13:49:54.066Z,101536.21
2019-04-06T13:52:34.159Z,101534.61
2019-04-06T13:55:19.712Z,101532.66
2019-04-06T13:57:57.868Z,101543.20
2019-04-06T14:00:43.260Z,101537.12
2019-04-06T14:03:25.163Z,101537.73
2019-04-06T14:06:11.118Z,101529.27
2019-04-06T14:08:59.763Z,101528.41
2019-04-06T14:11:45.195Z,101532.95
2019-04-06T14:14:32.231Z,101524.80
2019-04-06T14:17:17.638Z,101523.00
2019-04-06T14:20:03.802Z,101520.56
2019-04-06T14:22:53.315Z,101514.69
2019-04-06T14:25:49.262Z,101513.43
2019-04-06T14:28:36.129Z,101508.13
2019-04-06T14:31:29.500Z,101514.44
2019-04-06T14:34:10.822Z,101505.50
2019-04-06T14:36:52.105Z,101506.38
2019-04-06T14:39:38.864Z,101500.97
2019-04-06T14:42:15.358Z,101501.62
2019-04-06T14:45:05.566Z,101505.14
2019-04-06T14:47:58.307Z,101500.39
2019-04-06T14:50:42.338Z,101494.84
2019-04-06T14:53:31.908Z,101502.41
2019-04-06T14:56:14.034Z,101502.59
2019-04-06T14:59:16.989Z,101499.66
2019-04-06T15:02:11.567Z,101493.85
2019-04-06T15:05:00.119Z,101502.50
2019-04-06T15:07:40.915Z,101490.58
2019-04-06T15:10:37.430Z,101484.91
2019-04-06T15:13:14.743Z,101488.70
2019-04-06T15:16:01.666Z,101486.45
2019-04-06T15:18:37.106Z,101481.98
2019-04-06T15:21:23.795Z,101477.70
2019-04-06T15:24:23.651Z,101479.03
2019-04-06T15:27:10.296Z,101489.91
2019-04-06T15:29:47.676Z,101497.98
2019-04-06T15:32:36.967Z,101486.60
2019-04-06T15:35:31.907Z,101480.58
2019-04-06T15:38:15.123Z,101479.13
2019-04-06T15:41:09.654Z,101474.44
2019-04-06T15:44:05.265Z,101463.43
2019-04-06T15:46:51.310Z,101469.39
2019-04-06T15:49:55.799Z,101470.32
2019-04-06T15:52:41.427Z,101466.77
2019-04-06T15:55:31.118Z,101468.53
2019-04-06T15:58:33.305Z,101464.78
2019-04-06T16:01:13.950Z,101455.02
2019-04-06T16:03:59.156Z,101455.02
2019-04-06T16:06:52.041Z,101456.00
2019-04-06T16:09:54.138Z,101448.06
2019-04-06T16:12:39.943Z,101446.61
2019-04-06T16:15:21.181Z,101443.80
2019-04-06T16:18:08.195Z,101443.80
2019-04-06T16:20:44.774Z,101443.14
2019-04-06T16:23:38.061Z,101445.28
2019-04-06T16:26:14.352Z,101436.94
2019-04-06T16:29:06.795Z,101443.20
2019-04-06T16:31:53.714Z,101447.27
2019-04-06T16:34:29.547Z,101442.17
2019-04-06T16:37:17.866Z,101438.27
2019-04-06T16:39:52.423Z,101434.86
2019-04-06T16:42:41.810Z,101433.13
2019-04-06T16:45:24.034Z,101430.15
2019-04-06T16:48:10.704Z,101434.38
2019-04-06T16:51:00.360Z,101433.02
2019-04-06T16:53:53.205Z,101433.64
2019-04-06T16:56:37.037Z,101438.56
2019-04-06T16:59:21.240Z,101433.30
2019-04-06T17:02:08.214Z,101433.55
2019-04-06T17:04:55.003Z,101431.55
2019-04-06T17:07:33.970Z,101434.35
2019-04-06T17:10:38.975Z,101423.77
2019-04-06T17:13:44.611Z,101417.95
2019-04-06T17:16:40.914Z,101418.08
2019-04-06T17:19:33.922Z,101418.08
2019-04-06T17:22:17.501Z,101416.77
2019-04-06T17:25:09.981Z,101421.33
2019-04-06T17:28:01.635Z,101420.48
2019-04-06T17:30:54.351Z,101419.28
2019-04-06T17:33:36.461Z,101415.05
2019-04-06T17:36:31.309Z,101418.23
2019-04-06T17:39:25.328Z,101419.27
2019-04-06T17:42:21.222Z,101418.53
2019-04-06T17:45:11.453Z,101414.64
2019-04-06T17:47:56.681Z,101419.23
2019-04-06T17:50:52.324Z,101419.82
2019-04-06T17:53:39.257Z,101413.73
2019-04-06T17:56:33.341Z,101408.16
2019-04-06T17:59:20.253Z,101405.16
2019-04-06T18:02:10.272Z,101407.02
2019-04-06T18:05:03.345Z,101407.08
2019-04-06T18:07:39.683Z,101404.13
2019-04-06T18:10:17.297Z,101402.00
2019-04-06T18:13:04.454Z,101400.69
2019-04-06T18:15:31.925Z,101397.70
2019-04-06T18:17:59.551Z,101395.11
2019-04-06T18:20:26.817Z,101395.69
2019-04-06T18:22:53.952Z,101393.49
2019-04-06T18:25:22.058Z,101395.39
2019-04-06T18:27:50.564Z,101383.98
2019-04-06T18:30:18.158Z,101384.45
2019-04-06T18:32:58.321Z,101386.80
2019-04-06T18:35:17.904Z,101393.01
2019-04-06T18:37:51.367Z,101400.95
2019-04-06T18:40:28.284Z,101397.39
2019-04-06T18:42:56.205Z,101389.45
2019-04-06T18:45:24.217Z,101381.52
2019-04-06T18:47:51.340Z,101376.39
2019-04-06T18:50:18.625Z,101377.41
2019-04-06T18:52:45.798Z,101376.14
2019-04-06T18:55:13.009Z,101374.36
2019-04-06T18:57:40.327Z,101373.48
2019-04-06T19:00:11.603Z,101366.94
2019-04-06T19:02:38.456Z,101367.34
2019-04-06T19:05:06.968Z,101367.91
2019-04-06T19:07:34.230Z,101360.89
2019-04-06T19:10:01.604Z,101362.67
2019-04-06T19:12:28.756Z,101358.80
2019-04-06T19:14:55.905Z,101357.08
2019-04-06T19:17:26.099Z,101354.59
2019-04-06T19:19:53.822Z,101352.02
2019-04-06T19:22:21.203Z,101347.59
2019-04-06T19:24:48.764Z,101347.14
2019-04-06T19:27:15.875Z,101343.22
2019-04-06T19:29:42.963Z,101340.22
2019-04-06T19:32:10.349Z,101334.13
2019-04-06T19:34:37.559Z,101332.39
2019-04-06T19:37:04.746Z,101324.97
2019-04-06T19:39:31.908Z,101321.01
2019-04-06T19:41:59.138Z,101313.58
2019-04-06T19:44:26.223Z,101318.88
2019-04-06T19:46:54.824Z,101317.19
2019-04-06T19:49:22.023Z,101315.87
2019-04-06T19:51:49.550Z,101316.33
2019-04-06T19:54:16.777Z,101310.18
2019-04-06T19:56:44.073Z,101306.30
2019-04-06T19:59:12.890Z,101301.48
2019-04-06T20:01:40.280Z,101301.13
2019-04-06T20:04:07.389Z,101305.18
2019-04-06T20:06:34.633Z,101295.98
2019-04-06T20:09:01.775Z,101297.35
2019-04-06T20:11:28.984Z,101300.95
2019-04-06T20:13:56.244Z,101296.18
2019-04-06T20:16:23.351Z,101295.35
2019-04-06T20:18:50.706Z,101289.25
2019-04-06T20:21:17.849Z,101288.43
2019-04-06T20:23:44.978Z,101291.11
2019-04-06T20:26:12.074Z,101282.38
2019-04-06T20:28:39.230Z,101282.88
2019-04-06T20:31:06.392Z,101276.73
2019-04-06T20:33:35.018Z,101275.91
2019-04-06T20:36:02.555Z,101269.81
2019-04-06T20:38:29.956Z,101266.76
2019-04-06T20:40:57.216Z,101260.16
2019-04-06T20:43:24.949Z,101260.66
2019-04-06T20:45:52.122Z,101251.47
2019-04-06T20:48:20.582Z,101249.31
2019-04-06T20:50:47.751Z,101240.13
2019-04-06T20:53:14.879Z,101239.71
2019-04-06T20:55:42.027Z,101236.21
2019-04-06T20:58:09.554Z,101233.16
2019-04-06T21:00:36.900Z,101231.84
2019-04-06T21:03:05.060Z,101227.93
2019-04-06T21:05:32.454Z,101228.38
2019-04-06T21:08:00.157Z,101219.64
2019-04-06T21:10:27.390Z,101219.64
2019-04-06T21:12:54.511Z,101214.81
2019-04-06T21:15:21.692Z,101218.81
2019-04-06T21:17:49.386Z,101217.09
2019-04-06T21:20:17.209Z,101223.31
2019-04-06T21:22:44.426Z,101217.72
2019-04-06T21:25:11.544Z,101214.33
2019-04-06T21:27:38.636Z,101213.96
2019-04-06T21:30:07.064Z,101206.58
2019-04-06T21:32:34.369Z,101209.70
2019-04-06T21:35:04.233Z,101210.16
2019-04-06T21:37:30.462Z,101208.02
2019-04-06T21:39:57.842Z,101204.10
2019-04-06T21:42:27.577Z,101202.86
2019-04-06T21:44:54.785Z,101194.08
2019-04-06T21:47:22.025Z,101191.90
2019-04-06T21:49:49.130Z,101197.66
2019-04-06T21:52:16.771Z,101197.28
2019-04-06T21:54:44.023Z,101196.87
2019-04-06T21:57:11.120Z,101187.16
2019-04-06T21:59:38.196Z,101191.11
2019-04-06T22:02:06.056Z,101187.64
2019-04-06T22:04:33.681Z,101177.13
2019-04-06T22:07:01.019Z,101169.27
2019-04-06T22:09:28.755Z,101165.84
2019-04-06T22:11:55.937Z,101162.41
2019-04-06T22:14:23.840Z,101157.62
2019-04-06T22:16:51.005Z,101158.49
2019-04-06T22:19:18.080Z,101150.14
2019-04-06T22:21:45.327Z,101153.67
2019-04-06T22:24:12.394Z,101147.99
2019-04-06T22:26:39.509Z,101145.01
2019-04-06T22:29:06.627Z,101145.95
2019-04-06T22:31:33.731Z,101144.70
2019-04-06T22:34:00.827Z,101140.81
2019-04-06T22:36:27.924Z,101134.72
2019-04-06T22:38:55.155Z,101130.83
2019-04-06T22:41:22.224Z,101124.73
2019-04-06T22:43:49.664Z,101119.02
2019-04-06T22:46:17.069Z,101114.62
2019-04-06T22:48:44.387Z,101114.13
2019-04-06T22:51:11.527Z,101111.95
2019-04-06T22:53:38.668Z,101107.09
2019-04-06T22:56:05.806Z,101096.97
2019-04-06T22:58:33.389Z,101094.80
2019-04-06T23:01:08.781Z,101094.34
2019-04-06T23:03:54.157Z,101087.76
2019-04-06T23:06:27.199Z,101080.34
2019-04-06T23:08:54.243Z,101073.34
2019-04-06T23:11:21.603Z,101072.06
2019-04-06T23:13:49.456Z,101061.94
2019-04-06T23:16:17.029Z,101056.19
2019-04-06T23:18:44.486Z,101054.42
2019-04-06T23:21:11.707Z,101045.61
2019-04-06T23:23:38.791Z,101043.84
2019-04-06T23:26:05.870Z,101042.48
2019-04-06T23:28:34.742Z,101041.14
2019-04-06T23:31:01.816Z,101042.48
2019-04-06T23:33:29.045Z,101034.63
2019-04-06T23:35:56.170Z,101033.73
2019-04-06T23:38:23.311Z,101028.91
2019-04-06T23:40:50.427Z,101028.00
2019-04-06T23:43:17.507Z,101023.63
2019-04-06T23:45:44.801Z,101025.37
2019-04-06T23:48:12.050Z,101021.42
2019-04-06T23:50:39.539Z,101017.02
2019-04-06T23:53:06.811Z,101018.30
2019-04-06T23:55:35.392Z,101018.70
2019-04-06T23:58:02.874Z,101020.02
